首页
METAR-TAF:

METAR-TAF

机场 :

薩卡特卡斯州, 墨西哥

纬度: 22-54N, 经度: 102-41W, 海拔: 2140米

当前天气观测

该预报发布于41分钟前的15:44 UTC
风速10节,风向
温度 14°C
湿度 58%
气压 1028 hPa
能見度: 16.1公里
多云层高于20000英尺

METAR: MMZC 121544Z 18010KT 10SM BKN200 14/06 A3035 RMK 8/001

时间: 10:25 (16:25 UTC)

预报

该预报发布于5小时和29分钟前的10:56 UTC
预报有效从12日的 12点(UTC)到 13日的 18点(UTC)
风速节,风向
能見度: 10公里
阴天层高于25000英尺
从 12日的 1800点(UTC)
风速15节,风向西转西南
能見度: 10公里
散云层高于3000英尺
阴天层高于25000英尺
从 13日的 0600点(UTC)
风速8节,风向南转西南
能見度: 10公里
多云层高于25000英尺
从 13日的 1700点(UTC)
风速12节,风向北转西北
能見度: 10公里
散云层高于3000英尺
多云层高于25000英尺

TAF: MMZC 121056Z 1212/1318 00000KT P6SM OVC250 TX19/1221Z TN06/1212Z FM121800 24015KT P6SM SCT030 OVC250 FM130600 20008KT P6SM BKN250 FM131700 33012KT P6SM SCT030 BKN250

超过4000个机场的气象观测和天气预报(METAR&TAF报告)。

可查询的气象台以黄色和红色小点在地图上表示。

将鼠标移到小点上方,可查看气象台名称。

然后点击查看天气观测和预报。

如需切换地图:点击带黑十字的绿色按钮放大地图;点击带横线的绿色按钮缩小地图;或者点击绿色箭头查看邻近地区的地图。


METAR-TAF: